sensor_id;sensor_type;location;lat;lon;timestamp;P1;durP1;ratioP1;P2;durP2;ratioP2
71973;SDS011;59840;52.122;5.404;2023-02-15T00:01:40;19.90;;;9.95;;
71973;SDS011;59840;52.122;5.404;2023-02-15T00:04:07;20.07;;;9.67;;
71973;SDS011;59840;52.122;5.404;2023-02-15T00:06:35;24.40;;;10.65;;
71973;SDS011;59840;52.122;5.404;2023-02-15T00:09:02;21.15;;;9.88;;
71973;SDS011;59840;52.122;5.404;2023-02-15T00:11:29;23.42;;;10.75;;
71973;SDS011;59840;52.122;5.404;2023-02-15T00:14:31;18.13;;;9.60;;
71973;SDS011;59840;52.122;5.404;2023-02-15T00:16:58;16.13;;;9.37;;
71973;SDS011;59840;52.122;5.404;2023-02-15T00:19:26;20.58;;;9.20;;
71973;SDS011;59840;52.122;5.404;2023-02-15T00:21:52;24.60;;;10.20;;
71973;SDS011;59840;52.122;5.404;2023-02-15T00:24:19;17.25;;;8.93;;
71973;SDS011;59840;52.122;5.404;2023-02-15T00:26:46;20.52;;;9.30;;
71973;SDS011;59840;52.122;5.404;2023-02-15T00:29:14;18.97;;;8.83;;
71973;SDS011;59840;52.122;5.404;2023-02-15T00:31:41;15.88;;;8.63;;
71973;SDS011;59840;52.122;5.404;2023-02-15T00:34:12;19.10;;;9.45;;
71973;SDS011;59840;52.122;5.404;2023-02-15T00:36:47;22.08;;;9.88;;
71973;SDS011;59840;52.122;5.404;2023-02-15T00:39:14;22.05;;;10.93;;
71973;SDS011;59840;52.122;5.404;2023-02-15T00:41:41;22.70;;;10.70;;
71973;SDS011;59840;52.122;5.404;2023-02-15T00:44:08;22.52;;;9.93;;
71973;SDS011;59840;52.122;5.404;2023-02-15T00:46:35;22.38;;;10.50;;
71973;SDS011;59840;52.122;5.404;2023-02-15T00:49:02;26.00;;;11.23;;
71973;SDS011;59840;52.122;5.404;2023-02-15T00:51:29;19.75;;;10.15;;
71973;SDS011;59840;52.122;5.404;2023-02-15T00:53:56;20.73;;;9.63;;
71973;SDS011;59840;52.122;5.404;2023-02-15T00:56:22;28.33;;;10.70;;
71973;SDS011;59840;52.122;5.404;2023-02-15T00:58:49;22.50;;;11.27;;
71973;SDS011;59840;52.122;5.404;2023-02-15T01:01:17;29.30;;;12.02;;
71973;SDS011;59840;52.122;5.404;2023-02-15T01:03:45;26.55;;;12.10;;
71973;SDS011;59840;52.122;5.404;2023-02-15T01:06:13;26.27;;;12.10;;
71973;SDS011;59840;52.122;5.404;2023-02-15T01:08:41;29.80;;;12.57;;
71973;SDS011;59840;52.122;5.404;2023-02-15T01:11:08;28.80;;;13.05;;
71973;SDS011;59840;52.122;5.404;2023-02-15T01:13:37;29.25;;;12.82;;
71973;SDS011;59840;52.122;5.404;2023-02-15T01:16:04;25.45;;;12.23;;
71973;SDS011;59840;52.122;5.404;2023-02-15T01:18:31;36.43;;;12.67;;
71973;SDS011;59840;52.122;5.404;2023-02-15T01:20:58;29.75;;;12.40;;
71973;SDS011;59840;52.122;5.404;2023-02-15T01:23:25;27.50;;;12.13;;
71973;SDS011;59840;52.122;5.404;2023-02-15T01:25:51;29.65;;;12.75;;
71973;SDS011;59840;52.122;5.404;2023-02-15T01:28:18;26.98;;;12.35;;
71973;SDS011;59840;52.122;5.404;2023-02-15T01:30:44;28.23;;;12.20;;
71973;SDS011;59840;52.122;5.404;2023-02-15T01:33:11;27.83;;;12.50;;
71973;SDS011;59840;52.122;5.404;2023-02-15T01:35:44;24.42;;;11.93;;
71973;SDS011;59840;52.122;5.404;2023-02-15T01:38:14;25.80;;;12.13;;
71973;SDS011;59840;52.122;5.404;2023-02-15T01:40:41;27.60;;;12.80;;
71973;SDS011;59840;52.122;5.404;2023-02-15T01:43:11;25.53;;;12.37;;
71973;SDS011;59840;52.122;5.404;2023-02-15T01:45:38;26.50;;;12.10;;
71973;SDS011;59840;52.122;5.404;2023-02-15T01:48:14;22.80;;;11.35;;
71973;SDS011;59840;52.122;5.404;2023-02-15T01:50:43;28.67;;;12.27;;
71973;SDS011;59840;52.122;5.404;2023-02-15T01:55:44;24.47;;;11.90;;
71973;SDS011;59840;52.122;5.404;2023-02-15T01:58:16;26.50;;;11.65;;
71973;SDS011;59840;52.122;5.404;2023-02-15T02:00:43;26.95;;;11.45;;
71973;SDS011;59840;52.122;5.404;2023-02-15T02:03:10;23.70;;;12.27;;
71973;SDS011;59840;52.122;5.404;2023-02-15T02:05:38;25.05;;;11.15;;
71973;SDS011;59840;52.122;5.404;2023-02-15T02:08:07;28.77;;;11.70;;
71973;SDS011;59840;52.122;5.404;2023-02-15T02:10:36;27.90;;;11.48;;
71973;SDS011;59840;52.122;5.404;2023-02-15T02:13:04;27.67;;;13.27;;
71973;SDS011;59840;52.122;5.404;2023-02-15T02:15:52;28.40;;;13.18;;
71973;SDS011;59840;52.122;5.404;2023-02-15T02:18:47;37.42;;;14.98;;
71973;SDS011;59840;52.122;5.404;2023-02-15T02:43:02;24.20;;;11.63;;
71973;SDS011;59840;52.122;5.404;2023-02-15T02:48:20;24.57;;;11.07;;
71973;SDS011;59840;52.122;5.404;2023-02-15T02:50:50;24.17;;;11.00;;
71973;SDS011;59840;52.122;5.404;2023-02-15T02:53:16;25.05;;;11.35;;
71973;SDS011;59840;52.122;5.404;2023-02-15T02:55:45;21.70;;;10.52;;
71973;SDS011;59840;52.122;5.404;2023-02-15T03:00:55;23.20;;;10.43;;
71973;SDS011;59840;52.122;5.404;2023-02-15T03:06:01;24.58;;;9.77;;
71973;SDS011;59840;52.122;5.404;2023-02-15T03:08:34;23.92;;;10.80;;
71973;SDS011;59840;52.122;5.404;2023-02-15T03:11:04;18.77;;;9.97;;
71973;SDS011;59840;52.122;5.404;2023-02-15T03:13:31;22.60;;;10.40;;
71973;SDS011;59840;52.122;5.404;2023-02-15T03:15:58;25.20;;;10.00;;
71973;SDS011;59840;52.122;5.404;2023-02-15T03:18:48;21.25;;;10.27;;
71973;SDS011;59840;52.122;5.404;2023-02-15T03:21:34;19.98;;;9.77;;
71973;SDS011;59840;52.122;5.404;2023-02-15T03:24:07;24.77;;;9.93;;
71973;SDS011;59840;52.122;5.404;2023-02-15T03:26:42;23.45;;;10.10;;
71973;SDS011;59840;52.122;5.404;2023-02-15T03:29:11;22.02;;;10.10;;
71973;SDS011;59840;52.122;5.404;2023-02-15T03:31:40;27.08;;;10.95;;
71973;SDS011;59840;52.122;5.404;2023-02-15T03:34:11;23.70;;;10.20;;
71973;SDS011;59840;52.122;5.404;2023-02-15T03:36:54;21.07;;;10.67;;
71973;SDS011;59840;52.122;5.404;2023-02-15T03:39:30;25.20;;;10.43;;
71973;SDS011;59840;52.122;5.404;2023-02-15T03:42:06;29.13;;;11.65;;
71973;SDS011;59840;52.122;5.404;2023-02-15T03:44:37;23.42;;;10.73;;
71973;SDS011;59840;52.122;5.404;2023-02-15T03:47:13;24.35;;;10.02;;
71973;SDS011;59840;52.122;5.404;2023-02-15T03:49:49;19.13;;;9.40;;
71973;SDS011;59840;52.122;5.404;2023-02-15T03:52:22;20.92;;;10.45;;
71973;SDS011;59840;52.122;5.404;2023-02-15T03:54:52;23.27;;;10.05;;
71973;SDS011;59840;52.122;5.404;2023-02-15T03:57:23;24.15;;;9.88;;
71973;SDS011;59840;52.122;5.404;2023-02-15T04:00:17;21.95;;;9.40;;
71973;SDS011;59840;52.122;5.404;2023-02-15T04:05:31;19.92;;;9.90;;
71973;SDS011;59840;52.122;5.404;2023-02-15T04:07:57;19.77;;;9.48;;
71973;SDS011;59840;52.122;5.404;2023-02-15T04:10:24;18.02;;;9.52;;
71973;SDS011;59840;52.122;5.404;2023-02-15T04:13:08;21.75;;;9.85;;
71973;SDS011;59840;52.122;5.404;2023-02-15T04:15:35;18.43;;;9.20;;
71973;SDS011;59840;52.122;5.404;2023-02-15T04:18:20;18.70;;;9.07;;
71973;SDS011;59840;52.122;5.404;2023-02-15T04:20:47;18.90;;;9.35;;
71973;SDS011;59840;52.122;5.404;2023-02-15T04:23:32;21.00;;;9.38;;
71973;SDS011;59840;52.122;5.404;2023-02-15T04:26:17;15.00;;;8.55;;
71973;SDS011;59840;52.122;5.404;2023-02-15T04:28:43;17.33;;;8.67;;
71973;SDS011;59840;52.122;5.404;2023-02-15T04:31:10;18.73;;;9.70;;
71973;SDS011;59840;52.122;5.404;2023-02-15T04:33:36;23.52;;;9.93;;
71973;SDS011;59840;52.122;5.404;2023-02-15T04:36:05;20.58;;;9.27;;
71973;SDS011;59840;52.122;5.404;2023-02-15T04:38:31;17.70;;;9.30;;
71973;SDS011;59840;52.122;5.404;2023-02-15T04:40:58;21.20;;;10.00;;
71973;SDS011;59840;52.122;5.404;2023-02-15T04:43:24;19.55;;;9.00;;
71973;SDS011;59840;52.122;5.404;2023-02-15T04:45:51;17.15;;;8.60;;
71973;SDS011;59840;52.122;5.404;2023-02-15T04:48:18;20.80;;;9.55;;
71973;SDS011;59840;52.122;5.404;2023-02-15T04:50:44;16.58;;;8.32;;
71973;SDS011;59840;52.122;5.404;2023-02-15T04:53:11;18.47;;;9.43;;
71973;SDS011;59840;52.122;5.404;2023-02-15T04:55:38;20.48;;;9.77;;
71973;SDS011;59840;52.122;5.404;2023-02-15T04:58:04;19.17;;;9.27;;
71973;SDS011;59840;52.122;5.404;2023-02-15T05:00:31;19.80;;;9.80;;
71973;SDS011;59840;52.122;5.404;2023-02-15T05:02:57;20.65;;;8.98;;
71973;SDS011;59840;52.122;5.404;2023-02-15T05:05:24;19.93;;;8.30;;
71973;SDS011;59840;52.122;5.404;2023-02-15T05:07:51;16.92;;;9.02;;
71973;SDS011;59840;52.122;5.404;2023-02-15T05:10:17;19.73;;;8.35;;
71973;SDS011;59840;52.122;5.404;2023-02-15T05:12:44;20.55;;;8.55;;
71973;SDS011;59840;52.122;5.404;2023-02-15T05:15:10;17.92;;;9.20;;
71973;SDS011;59840;52.122;5.404;2023-02-15T05:17:37;16.53;;;8.07;;
71973;SDS011;59840;52.122;5.404;2023-02-15T05:20:03;16.35;;;8.02;;
71973;SDS011;59840;52.122;5.404;2023-02-15T05:22:30;20.23;;;9.00;;
71973;SDS011;59840;52.122;5.404;2023-02-15T05:24:57;18.92;;;7.97;;
71973;SDS011;59840;52.122;5.404;2023-02-15T05:27:42;18.70;;;8.32;;
71973;SDS011;59840;52.122;5.404;2023-02-15T05:30:30;19.27;;;8.27;;
71973;SDS011;59840;52.122;5.404;2023-02-15T05:32:57;16.77;;;8.50;;
71973;SDS011;59840;52.122;5.404;2023-02-15T05:35:23;21.45;;;9.13;;
71973;SDS011;59840;52.122;5.404;2023-02-15T05:37:50;18.13;;;9.18;;
71973;SDS011;59840;52.122;5.404;2023-02-15T05:40:16;22.73;;;9.50;;
71973;SDS011;59840;52.122;5.404;2023-02-15T05:42:43;23.47;;;9.60;;
71973;SDS011;59840;52.122;5.404;2023-02-15T05:45:10;16.40;;;8.45;;
71973;SDS011;59840;52.122;5.404;2023-02-15T05:47:36;22.85;;;8.90;;
71973;SDS011;59840;52.122;5.404;2023-02-15T05:50:03;21.88;;;8.80;;
71973;SDS011;59840;52.122;5.404;2023-02-15T05:52:30;19.98;;;9.18;;
71973;SDS011;59840;52.122;5.404;2023-02-15T05:54:57;21.27;;;9.67;;
71973;SDS011;59840;52.122;5.404;2023-02-15T05:57:24;19.92;;;8.90;;
71973;SDS011;59840;52.122;5.404;2023-02-15T05:59:50;18.35;;;8.85;;
71973;SDS011;59840;52.122;5.404;2023-02-15T06:02:17;22.90;;;9.30;;
71973;SDS011;59840;52.122;5.404;2023-02-15T06:04:44;18.63;;;8.50;;
71973;SDS011;59840;52.122;5.404;2023-02-15T06:07:10;22.47;;;9.17;;
71973;SDS011;59840;52.122;5.404;2023-02-15T06:09:38;16.50;;;7.95;;
71973;SDS011;59840;52.122;5.404;2023-02-15T06:12:05;16.38;;;8.57;;
71973;SDS011;59840;52.122;5.404;2023-02-15T06:14:31;20.92;;;10.13;;
71973;SDS011;59840;52.122;5.404;2023-02-15T06:16:58;20.70;;;9.90;;
71973;SDS011;59840;52.122;5.404;2023-02-15T06:19:24;19.60;;;7.70;;
71973;SDS011;59840;52.122;5.404;2023-02-15T06:21:51;21.05;;;9.10;;
71973;SDS011;59840;52.122;5.404;2023-02-15T06:24:18;19.92;;;9.02;;
71973;SDS011;59840;52.122;5.404;2023-02-15T06:26:44;20.92;;;8.70;;
71973;SDS011;59840;52.122;5.404;2023-02-15T06:29:11;22.42;;;8.98;;
71973;SDS011;59840;52.122;5.404;2023-02-15T06:31:37;17.43;;;8.40;;
71973;SDS011;59840;52.122;5.404;2023-02-15T06:34:04;17.48;;;8.35;;
71973;SDS011;59840;52.122;5.404;2023-02-15T06:36:30;20.30;;;8.52;;
71973;SDS011;59840;52.122;5.404;2023-02-15T06:38:58;17.48;;;8.73;;
71973;SDS011;59840;52.122;5.404;2023-02-15T06:41:24;18.10;;;8.18;;
71973;SDS011;59840;52.122;5.404;2023-02-15T06:43:51;14.87;;;8.10;;
71973;SDS011;59840;52.122;5.404;2023-02-15T06:46:17;19.35;;;8.90;;
71973;SDS011;59840;52.122;5.404;2023-02-15T06:48:44;16.75;;;8.40;;
71973;SDS011;59840;52.122;5.404;2023-02-15T06:51:11;18.90;;;8.82;;
71973;SDS011;59840;52.122;5.404;2023-02-15T06:53:37;20.50;;;8.93;;
71973;SDS011;59840;52.122;5.404;2023-02-15T06:56:05;18.93;;;9.37;;
71973;SDS011;59840;52.122;5.404;2023-02-15T06:58:38;20.23;;;9.30;;
71973;SDS011;59840;52.122;5.404;2023-02-15T07:01:06;20.63;;;8.70;;
71973;SDS011;59840;52.122;5.404;2023-02-15T07:03:33;22.23;;;9.27;;
71973;SDS011;59840;52.122;5.404;2023-02-15T07:06:01;21.05;;;8.57;;
71973;SDS011;59840;52.122;5.404;2023-02-15T07:08:29;19.00;;;9.30;;
71973;SDS011;59840;52.122;5.404;2023-02-15T07:10:56;15.05;;;7.72;;
71973;SDS011;59840;52.122;5.404;2023-02-15T07:13:42;18.92;;;9.07;;
71973;SDS011;59840;52.122;5.404;2023-02-15T07:16:09;23.33;;;9.00;;
71973;SDS011;59840;52.122;5.404;2023-02-15T07:18:36;16.90;;;8.95;;
71973;SDS011;59840;52.122;5.404;2023-02-15T07:21:03;20.53;;;8.53;;
71973;SDS011;59840;52.122;5.404;2023-02-15T07:23:30;18.13;;;8.80;;
71973;SDS011;59840;52.122;5.404;2023-02-15T07:25:57;20.90;;;8.68;;
71973;SDS011;59840;52.122;5.404;2023-02-15T07:28:25;17.85;;;8.88;;
71973;SDS011;59840;52.122;5.404;2023-02-15T07:30:51;19.73;;;8.90;;
71973;SDS011;59840;52.122;5.404;2023-02-15T07:33:18;22.87;;;8.67;;
71973;SDS011;59840;52.122;5.404;2023-02-15T07:35:54;15.00;;;8.27;;
71973;SDS011;59840;52.122;5.404;2023-02-15T07:38:24;17.83;;;7.93;;
71973;SDS011;59840;52.122;5.404;2023-02-15T07:40:57;20.13;;;9.00;;
71973;SDS011;59840;52.122;5.404;2023-02-15T07:43:24;18.65;;;8.80;;
71973;SDS011;59840;52.122;5.404;2023-02-15T07:45:50;19.20;;;9.60;;
71973;SDS011;59840;52.122;5.404;2023-02-15T07:48:17;17.95;;;9.13;;
71973;SDS011;59840;52.122;5.404;2023-02-15T07:50:44;19.52;;;9.88;;
71973;SDS011;59840;52.122;5.404;2023-02-15T07:53:10;21.92;;;9.63;;
71973;SDS011;59840;52.122;5.404;2023-02-15T07:55:37;19.70;;;9.38;;
71973;SDS011;59840;52.122;5.404;2023-02-15T07:58:04;22.50;;;9.57;;
71973;SDS011;59840;52.122;5.404;2023-02-15T08:00:30;21.63;;;9.30;;
71973;SDS011;59840;52.122;5.404;2023-02-15T08:03:17;19.58;;;8.68;;
71973;SDS011;59840;52.122;5.404;2023-02-15T08:05:44;20.73;;;9.55;;
71973;SDS011;59840;52.122;5.404;2023-02-15T08:08:11;20.80;;;9.20;;
71973;SDS011;59840;52.122;5.404;2023-02-15T08:11:03;17.17;;;8.67;;
71973;SDS011;59840;52.122;5.404;2023-02-15T08:13:49;18.52;;;8.60;;
71973;SDS011;59840;52.122;5.404;2023-02-15T08:19:06;18.63;;;8.95;;
71973;SDS011;59840;52.122;5.404;2023-02-15T08:21:38;20.05;;;9.23;;
71973;SDS011;59840;52.122;5.404;2023-02-15T08:24:07;18.43;;;9.10;;
71973;SDS011;59840;52.122;5.404;2023-02-15T08:26:35;21.83;;;9.88;;
71973;SDS011;59840;52.122;5.404;2023-02-15T08:29:02;22.08;;;10.48;;
71973;SDS011;59840;52.122;5.404;2023-02-15T08:31:29;22.10;;;10.43;;
71973;SDS011;59840;52.122;5.404;2023-02-15T08:33:56;21.60;;;10.88;;
71973;SDS011;59840;52.122;5.404;2023-02-15T08:36:24;25.17;;;10.53;;
71973;SDS011;59840;52.122;5.404;2023-02-15T08:38:53;22.55;;;10.68;;
71973;SDS011;59840;52.122;5.404;2023-02-15T08:41:26;27.15;;;11.10;;
71973;SDS011;59840;52.122;5.404;2023-02-15T08:43:59;22.58;;;10.93;;
71973;SDS011;59840;52.122;5.404;2023-02-15T08:46:28;25.95;;;11.32;;
71973;SDS011;59840;52.122;5.404;2023-02-15T08:48:57;22.90;;;10.50;;
71973;SDS011;59840;52.122;5.404;2023-02-15T08:51:28;25.80;;;11.05;;
71973;SDS011;59840;52.122;5.404;2023-02-15T08:53:57;22.23;;;11.02;;
71973;SDS011;59840;52.122;5.404;2023-02-15T08:56:26;24.33;;;11.07;;
71973;SDS011;59840;52.122;5.404;2023-02-15T08:58:54;25.42;;;12.23;;
71973;SDS011;59840;52.122;5.404;2023-02-15T09:01:23;20.87;;;11.43;;
71973;SDS011;59840;52.122;5.404;2023-02-15T09:03:55;25.95;;;12.05;;
71973;SDS011;59840;52.122;5.404;2023-02-15T09:06:24;26.10;;;11.38;;
71973;SDS011;59840;52.122;5.404;2023-02-15T09:08:51;24.63;;;11.73;;
71973;SDS011;59840;52.122;5.404;2023-02-15T09:11:26;26.65;;;12.38;;
71973;SDS011;59840;52.122;5.404;2023-02-15T09:13:55;30.70;;;13.50;;
71973;SDS011;59840;52.122;5.404;2023-02-15T09:16:24;25.63;;;12.73;;
71973;SDS011;59840;52.122;5.404;2023-02-15T09:18:52;32.03;;;13.55;;
71973;SDS011;59840;52.122;5.404;2023-02-15T09:21:20;28.58;;;13.05;;
71973;SDS011;59840;52.122;5.404;2023-02-15T09:23:49;26.90;;;13.27;;
71973;SDS011;59840;52.122;5.404;2023-02-15T09:26:20;29.87;;;12.93;;
71973;SDS011;59840;52.122;5.404;2023-02-15T09:28:50;35.85;;;14.10;;
71973;SDS011;59840;52.122;5.404;2023-02-15T09:31:19;28.83;;;14.13;;
71973;SDS011;59840;52.122;5.404;2023-02-15T09:33:47;28.83;;;13.02;;
71973;SDS011;59840;52.122;5.404;2023-02-15T09:38:46;30.60;;;13.63;;
71973;SDS011;59840;52.122;5.404;2023-02-15T09:54:23;29.00;;;14.77;;
71973;SDS011;59840;52.122;5.404;2023-02-15T09:57:08;30.48;;;14.23;;
71973;SDS011;59840;52.122;5.404;2023-02-15T10:05:28;31.70;;;13.77;;
71973;SDS011;59840;52.122;5.404;2023-02-15T10:11:03;27.40;;;13.80;;
71973;SDS011;59840;52.122;5.404;2023-02-15T10:14:01;31.50;;;14.27;;
71973;SDS011;59840;52.122;5.404;2023-02-15T10:16:42;30.15;;;14.95;;
71973;SDS011;59840;52.122;5.404;2023-02-15T10:19:42;29.53;;;12.97;;
71973;SDS011;59840;52.122;5.404;2023-02-15T10:22:32;28.63;;;13.63;;
71973;SDS011;59840;52.122;5.404;2023-02-15T10:27:46;30.60;;;14.50;;
71973;SDS011;59840;52.122;5.404;2023-02-15T10:30:23;27.42;;;14.05;;
71973;SDS011;59840;52.122;5.404;2023-02-15T10:33:01;33.63;;;14.40;;
71973;SDS011;59840;52.122;5.404;2023-02-15T10:40:55;33.40;;;14.65;;
71973;SDS011;59840;52.122;5.404;2023-02-15T10:51:58;30.38;;;14.35;;
71973;SDS011;59840;52.122;5.404;2023-02-15T10:57:10;26.73;;;13.57;;
71973;SDS011;59840;52.122;5.404;2023-02-15T11:05:26;25.02;;;13.35;;
71973;SDS011;59840;52.122;5.404;2023-02-15T11:08:00;24.10;;;13.13;;
71973;SDS011;59840;52.122;5.404;2023-02-15T11:10:34;30.20;;;14.05;;
71973;SDS011;59840;52.122;5.404;2023-02-15T11:13:07;28.10;;;13.03;;
71973;SDS011;59840;52.122;5.404;2023-02-15T11:18:48;29.17;;;14.15;;
71973;SDS011;59840;52.122;5.404;2023-02-15T11:21:22;28.55;;;13.73;;
71973;SDS011;59840;52.122;5.404;2023-02-15T11:23:52;28.38;;;13.60;;
71973;SDS011;59840;52.122;5.404;2023-02-15T11:35:03;28.40;;;14.20;;
71973;SDS011;59840;52.122;5.404;2023-02-15T11:40:15;26.97;;;14.00;;
71973;SDS011;59840;52.122;5.404;2023-02-15T11:42:43;26.52;;;14.38;;
71973;SDS011;59840;52.122;5.404;2023-02-15T11:45:17;31.85;;;14.35;;
71973;SDS011;59840;52.122;5.404;2023-02-15T11:47:48;29.23;;;14.50;;
71973;SDS011;59840;52.122;5.404;2023-02-15T11:50:16;26.50;;;13.50;;
71973;SDS011;59840;52.122;5.404;2023-02-15T11:52:52;31.33;;;15.10;;
71973;SDS011;59840;52.122;5.404;2023-02-15T11:55:22;32.45;;;14.45;;
71973;SDS011;59840;52.122;5.404;2023-02-15T12:00:42;28.77;;;14.18;;
71973;SDS011;59840;52.122;5.404;2023-02-15T12:06:25;28.20;;;14.17;;
71973;SDS011;59840;52.122;5.404;2023-02-15T12:08:56;30.25;;;14.00;;
71973;SDS011;59840;52.122;5.404;2023-02-15T12:11:33;29.45;;;15.43;;
71973;SDS011;59840;52.122;5.404;2023-02-15T12:14:03;28.58;;;15.07;;
71973;SDS011;59840;52.122;5.404;2023-02-15T12:16:34;30.13;;;14.40;;
71973;SDS011;59840;52.122;5.404;2023-02-15T12:19:13;29.13;;;14.73;;
71973;SDS011;59840;52.122;5.404;2023-02-15T12:21:44;28.13;;;15.10;;
71973;SDS011;59840;52.122;5.404;2023-02-15T12:24:22;28.33;;;14.23;;
71973;SDS011;59840;52.122;5.404;2023-02-15T12:29:29;33.05;;;15.43;;
71973;SDS011;59840;52.122;5.404;2023-02-15T12:32:00;30.03;;;15.50;;
71973;SDS011;59840;52.122;5.404;2023-02-15T12:34:32;30.50;;;15.30;;
71973;SDS011;59840;52.122;5.404;2023-02-15T12:37:10;30.48;;;15.57;;
71973;SDS011;59840;52.122;5.404;2023-02-15T12:40:02;29.45;;;15.55;;
71973;SDS011;59840;52.122;5.404;2023-02-15T12:42:46;30.15;;;15.40;;
71973;SDS011;59840;52.122;5.404;2023-02-15T12:45:20;30.80;;;15.30;;
71973;SDS011;59840;52.122;5.404;2023-02-15T12:47:47;28.95;;;14.80;;
71973;SDS011;59840;52.122;5.404;2023-02-15T12:50:34;27.65;;;14.40;;
71973;SDS011;59840;52.122;5.404;2023-02-15T12:53:08;28.75;;;15.13;;
71973;SDS011;59840;52.122;5.404;2023-02-15T12:58:27;29.70;;;15.43;;
71973;SDS011;59840;52.122;5.404;2023-02-15T13:06:28;29.77;;;16.02;;
71973;SDS011;59840;52.122;5.404;2023-02-15T13:09:05;29.17;;;15.35;;
71973;SDS011;59840;52.122;5.404;2023-02-15T13:11:40;26.93;;;15.00;;
71973;SDS011;59840;52.122;5.404;2023-02-15T13:14:19;29.13;;;15.32;;
71973;SDS011;59840;52.122;5.404;2023-02-15T13:16:50;29.83;;;15.82;;
71973;SDS011;59840;52.122;5.404;2023-02-15T13:19:21;34.22;;;17.35;;
71973;SDS011;59840;52.122;5.404;2023-02-15T13:21:55;31.52;;;16.63;;
71973;SDS011;59840;52.122;5.404;2023-02-15T13:24:24;32.80;;;16.10;;
71973;SDS011;59840;52.122;5.404;2023-02-15T13:26:55;34.13;;;16.55;;
71973;SDS011;59840;52.122;5.404;2023-02-15T13:29:39;29.70;;;15.07;;
71973;SDS011;59840;52.122;5.404;2023-02-15T13:32:12;31.75;;;16.02;;
71973;SDS011;59840;52.122;5.404;2023-02-15T13:34:43;29.33;;;15.20;;
71973;SDS011;59840;52.122;5.404;2023-02-15T13:37:18;30.83;;;15.50;;
71973;SDS011;59840;52.122;5.404;2023-02-15T13:39:54;29.92;;;15.43;;
71973;SDS011;59840;52.122;5.404;2023-02-15T13:42:31;32.35;;;15.93;;
71973;SDS011;59840;52.122;5.404;2023-02-15T13:59:01;33.05;;;16.45;;
71973;SDS011;59840;52.122;5.404;2023-02-15T14:07:35;31.80;;;16.08;;
71973;SDS011;59840;52.122;5.404;2023-02-15T14:15:57;31.23;;;16.17;;
71973;SDS011;59840;52.122;5.404;2023-02-15T14:18:34;32.70;;;15.63;;
71973;SDS011;59840;52.122;5.404;2023-02-15T14:21:46;27.63;;;15.68;;
71973;SDS011;59840;52.122;5.404;2023-02-15T14:24:27;30.45;;;15.82;;
71973;SDS011;59840;52.122;5.404;2023-02-15T14:27:10;28.67;;;15.13;;
71973;SDS011;59840;52.122;5.404;2023-02-15T14:29:51;30.33;;;16.02;;
71973;SDS011;59840;52.122;5.404;2023-02-15T14:32:35;26.33;;;14.37;;
71973;SDS011;59840;52.122;5.404;2023-02-15T14:35:14;30.15;;;15.48;;
71973;SDS011;59840;52.122;5.404;2023-02-15T14:40:32;32.22;;;15.77;;
71973;SDS011;59840;52.122;5.404;2023-02-15T14:56:43;31.13;;;17.17;;
71973;SDS011;59840;52.122;5.404;2023-02-15T15:01:37;35.60;;;17.05;;
71973;SDS011;59840;52.122;5.404;2023-02-15T15:04:06;33.15;;;17.13;;
71973;SDS011;59840;52.122;5.404;2023-02-15T15:06:42;32.75;;;17.27;;
71973;SDS011;59840;52.122;5.404;2023-02-15T15:09:14;34.28;;;17.20;;
71973;SDS011;59840;52.122;5.404;2023-02-15T15:11:49;32.13;;;16.23;;
71973;SDS011;59840;52.122;5.404;2023-02-15T15:14:38;30.45;;;15.45;;
71973;SDS011;59840;52.122;5.404;2023-02-15T15:17:05;34.60;;;15.63;;
71973;SDS011;59840;52.122;5.404;2023-02-15T15:22:19;34.28;;;16.02;;
71973;SDS011;59840;52.122;5.404;2023-02-15T15:24:51;31.87;;;15.47;;
71973;SDS011;59840;52.122;5.404;2023-02-15T15:27:45;28.90;;;15.00;;
71973;SDS011;59840;52.122;5.404;2023-02-15T15:35:35;30.00;;;15.68;;
71973;SDS011;59840;52.122;5.404;2023-02-15T15:49:47;27.75;;;15.18;;
71973;SDS011;59840;52.122;5.404;2023-02-15T15:52:14;32.07;;;15.20;;
71973;SDS011;59840;52.122;5.404;2023-02-15T15:54:44;32.90;;;15.15;;
71973;SDS011;59840;52.122;5.404;2023-02-15T15:57:15;34.78;;;16.63;;
71973;SDS011;59840;52.122;5.404;2023-02-15T15:59:54;37.80;;;17.00;;
71973;SDS011;59840;52.122;5.404;2023-02-15T16:02:24;32.75;;;15.55;;
71973;SDS011;59840;52.122;5.404;2023-02-15T16:04:51;32.67;;;16.13;;
71973;SDS011;59840;52.122;5.404;2023-02-15T16:09:54;34.20;;;16.60;;
71973;SDS011;59840;52.122;5.404;2023-02-15T16:12:25;34.50;;;18.33;;
71973;SDS011;59840;52.122;5.404;2023-02-15T16:14:54;31.48;;;16.27;;
71973;SDS011;59840;52.122;5.404;2023-02-15T16:17:24;30.90;;;15.70;;
71973;SDS011;59840;52.122;5.404;2023-02-15T16:19:56;33.50;;;15.90;;
71973;SDS011;59840;52.122;5.404;2023-02-15T16:22:28;35.13;;;16.80;;
71973;SDS011;59840;52.122;5.404;2023-02-15T16:27:43;34.20;;;16.35;;
71973;SDS011;59840;52.122;5.404;2023-02-15T16:32:55;32.80;;;16.33;;
71973;SDS011;59840;52.122;5.404;2023-02-15T16:35:30;31.85;;;16.23;;
71973;SDS011;59840;52.122;5.404;2023-02-15T16:37:57;35.28;;;15.95;;
71973;SDS011;59840;52.122;5.404;2023-02-15T16:42:57;30.63;;;15.83;;
71973;SDS011;59840;52.122;5.404;2023-02-15T16:45:30;32.13;;;16.58;;
71973;SDS011;59840;52.122;5.404;2023-02-15T16:47:59;31.35;;;17.13;;
71973;SDS011;59840;52.122;5.404;2023-02-15T16:50:32;37.75;;;18.08;;
71973;SDS011;59840;52.122;5.404;2023-02-15T16:53:01;41.92;;;18.83;;
71973;SDS011;59840;52.122;5.404;2023-02-15T16:55:39;37.10;;;18.73;;
71973;SDS011;59840;52.122;5.404;2023-02-15T16:58:12;42.35;;;17.60;;
71973;SDS011;59840;52.122;5.404;2023-02-15T17:00:41;38.78;;;19.85;;
71973;SDS011;59840;52.122;5.404;2023-02-15T17:05:48;39.97;;;19.55;;
71973;SDS011;59840;52.122;5.404;2023-02-15T17:08:18;40.00;;;19.60;;
71973;SDS011;59840;52.122;5.404;2023-02-15T17:13:26;43.83;;;21.33;;
71973;SDS011;59840;52.122;5.404;2023-02-15T17:20:58;36.40;;;16.93;;
71973;SDS011;59840;52.122;5.404;2023-02-15T17:23:32;32.67;;;16.92;;
71973;SDS011;59840;52.122;5.404;2023-02-15T17:26:10;33.72;;;17.48;;
71973;SDS011;59840;52.122;5.404;2023-02-15T17:28:51;35.35;;;17.20;;
71973;SDS011;59840;52.122;5.404;2023-02-15T17:31:20;38.20;;;17.15;;
71973;SDS011;59840;52.122;5.404;2023-02-15T17:33:50;35.53;;;16.73;;
71973;SDS011;59840;52.122;5.404;2023-02-15T17:36:21;51.88;;;22.67;;
71973;SDS011;59840;52.122;5.404;2023-02-15T17:39:18;52.33;;;23.65;;
71973;SDS011;59840;52.122;5.404;2023-02-15T17:41:46;39.72;;;19.02;;
71973;SDS011;59840;52.122;5.404;2023-02-15T17:44:13;39.75;;;19.67;;
71973;SDS011;59840;52.122;5.404;2023-02-15T17:46:41;41.17;;;19.47;;
71973;SDS011;59840;52.122;5.404;2023-02-15T17:49:14;46.10;;;21.90;;
71973;SDS011;59840;52.122;5.404;2023-02-15T17:51:49;45.13;;;20.05;;
71973;SDS011;59840;52.122;5.404;2023-02-15T17:54:15;40.95;;;19.13;;
71973;SDS011;59840;52.122;5.404;2023-02-15T17:57:00;42.67;;;18.90;;
71973;SDS011;59840;52.122;5.404;2023-02-15T17:59:30;38.80;;;18.30;;
71973;SDS011;59840;52.122;5.404;2023-02-15T18:01:57;42.55;;;19.88;;
71973;SDS011;59840;52.122;5.404;2023-02-15T18:04:42;39.80;;;17.75;;
71973;SDS011;59840;52.122;5.404;2023-02-15T18:07:27;44.00;;;20.50;;
71973;SDS011;59840;52.122;5.404;2023-02-15T18:10:13;42.17;;;20.90;;
71973;SDS011;59840;52.122;5.404;2023-02-15T18:12:59;46.90;;;19.83;;
71973;SDS011;59840;52.122;5.404;2023-02-15T18:15:26;42.70;;;20.48;;